PAED METAR and TAF weather

Enter ICAO airport designator
Station Type Date Time Source
PAED METAR 2022/01/29 09:56 UTC NOAA

PAED 290956Z 01005KT 10SM OVC110 M05/M08 A2935 RMK AO2A SLP938 P0000 T10551084 $


Station Type Date Time Source
PAED Decoded METAR 2022/01/29 09:56 UTC NOAA

Anchorage, Elmendorf Air Force Base, AK, United States (PAED) 61-15-11N 149-47-38W 59M
Jan 29, 2022 - 04:56 AM EST / 2022.01.29 0956 UTC
Wind: from the N (010 degrees) at 6 MPH (5 KT):0
Visibility: 10 mile(s):0
Sky conditions: overcast
Precipitation last hour: A trace
Temperature: 22.1 F (-5.5 C)
Windchill: 14 F (-10 C):1
Dew Point: 16.9 F (-8.4 C)
Relative Humidity: 79%
Pressure (altimeter): 29.35 in. Hg (993 hPa)
ob: PAED 290956Z 01005KT 10SM OVC110 M05/M08 A2935 RMK AO2A SLP938 P0000 T10551084
cycle: 10

Station Type Date Time Source
PAED TAF 2022/01/29 03:06 UTC NOAA

TAF TAF PAED 290300Z 2903/3009 01012KT 9999 VCSH SCT080 OVC130 QNH2931INS
BECMG 2912/2913 02009KT 9999 NSW FEW050 BKN180 QNH2929INS
BECMG 3008/3009 03006KT 9999 VCFG FEW002 QNH2973INS TXM06/2903Z TNM13/2915Z

Example: see airport list